Time;durP1;ratioP1;P1;durP2;ratioP2;P2;SDS_P1;SDS_P2;PMS_P1;PMS_P2;Temp;Humidity;BMP_temperature;BMP_pressure;BME280_temperature;BME280_humidity;BME280_pressure;Samples;Min_cycle;Max_cycle;Signal;HPM_P1;HPM_P2
2023/04/17 00:00:05;;;;;;;27.15;19.70;;;;;;;11.27;98.51;97053.94;10452934;28;20481;-54
2023/04/17 00:05:08;;;;;;;28.25;20.60;;;;;;;11.33;98.44;97050.38;10452521;28;20067;-54
2023/04/17 00:10:09;;;;;;;29.65;20.05;;;;;;;11.38;98.09;97049.41;10453577;28;20481;-54
2023/04/17 00:15:08;;;;;;;32.03;21.25;;;;;;;11.43;98.41;97042.44;10453376;28;20095;-54
2023/04/17 00:20:10;;;;;;;;;;;;;;;11.46;97.62;97038.94;10453860;28;20067;-54
2023/04/17 00:25:13;;;;;;;23.67;17.17;;;;;;;11.48;96.82;97038.88;10453203;28;19959;-54
2023/04/17 00:30:12;;;;;;;74.95;58.13;;;;;;;11.40;97.08;97042.47;10453030;28;20064;-53
2023/04/17 00:35:11;;;;;;;19.70;15.02;;;;;;;11.39;97.09;97030.38;10453256;28;20098;-53
2023/04/17 00:40:11;;;;;;;48.05;35.85;;;;;;;11.48;97.13;97039.75;10452335;28;20079;-53
2023/04/17 00:45:10;;;;;;;20.92;14.88;;;;;;;11.57;96.11;97050.00;10451933;28;20076;-55
2023/04/17 00:50:09;;;;;;;;;;;;;;;11.51;96.52;97046.66;10452657;28;20076;-53
2023/04/17 00:55:09;;;;;;;22.38;14.80;;;;;;;11.56;96.09;97031.84;10452412;28;19912;-55
2023/04/17 01:00:09;;;;;;;23.40;17.38;;;;;;;11.43;96.07;97026.84;10451988;28;20516;-54
2023/04/17 01:05:08;;;;;;;24.10;16.42;;;;;;;11.49;96.15;97040.63;10450544;28;20072;-55
2023/04/17 01:10:07;;;;;;;;;;;;;;;11.50;96.05;97043.16;10451525;28;20051;-54
2023/04/17 01:15:06;;;;;;;28.27;20.02;;;;;;;11.49;96.32;97035.41;10451710;28;19963;-54
2023/04/17 01:20:07;;;;;;;;;;;;;;;11.52;96.10;97037.97;10450956;28;20072;-53
2023/04/17 01:25:07;;;;;;;23.25;16.88;;;;;;;11.58;96.54;97035.28;10432943;28;20000;-54
2023/04/17 01:30:07;;;;;;;24.67;18.55;;;;;;;11.48;96.18;97037.16;10450520;28;20462;-53
2023/04/17 01:35:06;;;;;;;22.73;16.30;;;;;;;11.58;96.26;97032.66;10449791;28;20071;-53
2023/04/17 01:40:06;;;;;;;;;;;;;;;11.66;96.21;97030.78;10450469;28;20090;-54
2023/04/17 01:45:05;;;;;;;21.95;16.55;;;;;;;11.70;96.14;97029.84;10450223;28;19969;-54
2023/04/17 01:50:07;;;;;;;46.40;28.73;;;;;;;11.37;96.19;96976.72;10449634;28;20080;-53
2023/04/17 01:55:07;;;;;;;46.83;27.65;;;;;;;11.34;96.29;96967.25;10449500;28;20083;-53
2023/04/17 02:00:06;;;;;;;42.13;28.35;;;;;;;11.57;96.16;97017.94;10450242;28;20091;-54
2023/04/17 02:05:06;;;;;;;44.70;29.08;;;;;;;11.51;95.79;97002.47;10449548;28;20518;-54
2023/04/17 02:10:05;;;;;;;44.10;29.50;;;;;;;11.52;96.22;97014.56;10449823;28;20070;-54
2023/04/17 02:15:05;;;;;;;31.08;22.75;;;;;;;11.53;96.65;97016.31;10448901;28;20130;-54
2023/04/17 02:20:06;;;;;;;29.38;21.98;;;;;;;11.24;96.28;97009.81;10449014;28;20520;-53
2023/04/17 02:25:05;;;;;;;31.73;22.50;;;;;;;11.23;96.71;97014.16;10449037;28;20074;-54
2023/04/17 02:30:04;;;;;;;;;;;;;;;11.23;96.40;97000.31;10449041;28;20067;-54
2023/04/17 02:35:03;;;;;;;38.80;25.38;;;;;;;11.13;96.33;96994.41;10448607;28;19926;-54
2023/04/17 02:40:06;;;;;;;35.20;23.40;;;;;;;10.95;97.01;97011.13;10451387;28;20083;-54
2023/04/17 02:45:05;;;;;;;36.38;23.27;;;;;;;10.48;98.60;96997.03;10451963;28;20067;-54
2023/04/17 02:50:05;;;;;;;32.63;23.73;;;;;;;10.62;98.91;97020.19;10451946;28;20087;-53
2023/04/17 02:55:05;;;;;;;44.00;32.63;;;;;;;10.79;98.33;97004.41;10451815;28;20062;-54
2023/04/17 03:00:11;;;;;;;31.45;21.40;;;;;;;10.88;98.39;97017.28;10451909;28;20071;-54
2023/04/17 03:05:15;;;;;;;29.08;20.48;;;;;;;10.81;98.59;97018.22;10451544;28;20177;-53
2023/04/17 03:10:14;;;;;;;27.98;20.05;;;;;;;10.77;99.61;97014.78;10450841;28;20075;-53
2023/04/17 03:15:13;;;;;;;34.75;22.02;;;;;;;10.46;98.89;96927.91;10451485;28;20177;-54
2023/04/17 03:20:14;;;;;;;29.70;21.38;;;;;;;11.11;97.94;97019.56;10451013;28;20066;-54
2023/04/17 03:25:13;;;;;;;33.33;24.00;;;;;;;11.16;98.12;97019.47;10451194;28;20067;-54
2023/04/17 03:30:12;;;;;;;31.02;21.85;;;;;;;11.23;97.93;97019.34;10453131;28;20044;-53
2023/04/17 03:35:11;;;;;;;30.77;22.33;;;;;;;11.34;97.87;97020.91;10459314;28;20063;-54
2023/04/17 03:40:10;;;;;;;32.92;24.17;;;;;;;11.40;97.29;97023.44;10457875;28;20079;-53
2023/04/17 03:45:09;;;;;;;;;;;;;;;11.35;96.72;97028.69;10457364;28;20063;-54
2023/04/17 03:50:08;;;;;;;29.25;21.15;;;;;;;11.34;97.17;97026.09;10455187;28;19920;-54
2023/04/17 03:55:08;;;;;;;29.45;21.20;;;;;;;11.39;96.99;97032.97;10455551;28;20067;-54
2023/04/17 04:00:09;;;;;;;48.50;31.30;;;;;;;11.24;96.10;97010.69;10455178;28;20083;-54
2023/04/17 04:05:08;;;;;;;32.95;22.55;;;;;;;11.29;96.29;97031.41;10456145;28;20068;-56
2023/04/17 04:10:07;;;;;;;30.98;21.20;;;;;;;11.15;96.38;97007.38;10455472;28;20417;-54
2023/04/17 04:15:07;;;;;;;34.13;21.50;;;;;;;11.33;96.84;97024.41;10454468;28;20524;-54
2023/04/17 04:20:09;;;;;;;34.83;21.60;;;;;;;11.39;97.34;97013.94;10454546;28;20078;-54
2023/04/17 04:25:08;;;;;;;33.05;21.88;;;;;;;11.53;96.82;97014.56;10454444;28;20069;-54
2023/04/17 04:30:09;;;;;;;33.95;20.30;;;;;;;11.70;97.06;97024.66;10453647;28;20477;-54
2023/04/17 04:35:08;;;;;;;28.67;19.95;;;;;;;11.85;96.77;97034.81;10453951;28;20076;-53
2023/04/17 04:40:14;;;;;;;23.02;15.85;;;;;;;12.00;96.15;97035.41;10452615;28;20075;-55
2023/04/17 04:45:14;;;;;;;19.45;14.48;;;;;;;12.27;95.91;97034.94;10453711;28;20067;-54
2023/04/17 04:50:13;;;;;;;18.30;12.90;;;;;;;12.60;94.11;97032.53;10452115;28;20269;-54
2023/04/17 04:55:13;;;;;;;;;;;;;;;12.86;94.27;97025.91;10453160;28;20055;-54
2023/04/17 05:00:13;;;;;;;16.92;13.23;;;;;;;13.08;92.82;97032.34;10451549;28;20401;-54
2023/04/17 05:05:12;;;;;;;16.98;12.43;;;;;;;13.23;90.85;97041.56;10452140;28;20071;-53
2023/04/17 05:10:10;;;;;;;;;;;;;;;13.26;88.90;97040.66;10453329;28;20020;-55
2023/04/17 05:15:09;;;;;;;16.77;13.25;;;;;;;13.26;88.14;97038.06;10451786;28;19918;-54
2023/04/17 05:20:09;;;;;;;15.23;11.98;;;;;;;13.24;87.05;97048.50;10446085;28;20139;-54
2023/04/17 05:25:08;;;;;;;19.33;14.02;;;;;;;13.39;86.25;97051.63;10444617;28;20051;-54
2023/04/17 05:30:07;;;;;;;;;;;;;;;13.63;86.24;97050.22;10445655;28;20039;-54
2023/04/17 05:35:06;;;;;;;21.88;17.10;;;;;;;13.88;86.50;97045.25;10445587;28;19947;-54
2023/04/17 05:40:06;;;;;;;24.33;18.30;;;;;;;14.05;85.30;97050.03;10443801;28;20926;-54
2023/04/17 05:45:05;;;;;;;26.73;20.00;;;;;;;14.09;83.05;97049.91;10444938;28;20074;-54
2023/04/17 05:50:05;;;;;;;23.17;17.38;;;;;;;14.00;81.80;97052.75;10443353;28;20436;-54
2023/04/17 05:55:05;;;;;;;25.15;19.60;;;;;;;13.85;82.11;97027.94;10444070;28;20126;-54
2023/04/17 06:00:11;;;;;;;22.23;15.07;;;;;;;14.09;80.23;97049.91;10443442;28;20079;-54
2023/04/17 06:05:10;;;;;;;33.85;23.63;;;;;;;14.20;79.92;97058.31;10445099;28;20543;-54
2023/04/17 06:10:09;;;;;;;;;;;;;;;14.03;80.75;97057.03;10444646;28;20531;-54
2023/04/17 06:15:08;;;;;;;15.02;12.43;;;;;;;13.78;81.63;97058.53;10443280;28;19912;-53
2023/04/17 06:20:11;;;;;;;14.63;12.30;;;;;;;13.83;81.82;97066.25;10441474;28;20143;-53
2023/04/17 06:25:10;;;;;;;25.33;16.17;;;;;;;13.85;81.28;97067.06;10445013;28;20066;-53
2023/04/17 06:30:09;;;;;;;;;;;;;;;13.60;81.16;97065.94;10444059;28;20016;-53
2023/04/17 06:35:10;;;;;;;14.90;9.63;;;;;;;13.75;81.96;97070.81;10444036;28;20335;-54
2023/04/17 06:40:11;;;;;;;11.32;9.20;;;;;;;13.43;82.71;97064.56;10446110;28;20079;-54
2023/04/17 06:45:10;;;;;;;14.73;9.50;;;;;;;13.87;80.91;97070.50;10443300;28;20082;-53
2023/04/17 06:50:09;;;;;;;10.93;8.07;;;;;;;14.26;78.69;97072.09;10443754;28;20083;-53
2023/04/17 06:55:09;;;;;;;10.90;7.47;;;;;;;14.24;76.84;97071.28;10443424;28;20063;-54
2023/04/17 07:00:08;;;;;;;9.90;6.70;;;;;;;14.06;75.66;97055.22;10442997;28;20095;-53
2023/04/17 07:05:08;;;;;;;10.32;7.18;;;;;;;14.44;73.11;97065.53;10442135;28;20599;-54
2023/04/17 07:10:07;;;;;;;10.70;6.95;;;;;;;14.78;73.35;97076.78;10443201;28;20066;-53
2023/04/17 07:15:07;;;;;;;9.35;7.18;;;;;;;15.01;72.66;97043.88;10444281;28;20056;-54
2023/04/17 07:20:07;;;;;;;11.55;6.95;;;;;;;15.15;69.62;97073.06;10442854;28;20095;-53
2023/04/17 07:25:06;;;;;;;8.13;6.57;;;;;;;15.23;66.83;97076.31;10441689;28;20105;-55
2023/04/17 07:30:07;;;;;;;11.68;7.72;;;;;;;15.55;67.38;97079.69;10441914;28;20056;-52
2023/04/17 07:35:06;;;;;;;11.27;8.27;;;;;;;15.78;65.99;97092.00;10442095;28;20118;-51
2023/04/17 07:40:07;;;;;;;13.90;9.13;;;;;;;16.03;66.68;97081.63;10440962;28;20170;-52
2023/04/17 07:45:07;;;;;;;12.07;8.57;;;;;;;16.29;62.40;97078.13;10417773;28;20107;-52
2023/04/17 07:50:07;;;;;;;13.73;8.35;;;;;;;16.55;62.09;97093.84;10441565;28;20071;-51
2023/04/17 07:55:06;;;;;;;13.45;7.82;;;;;;;16.37;61.18;97085.72;10440077;28;20119;-52
2023/04/17 08:00:08;;;;;;;11.35;7.40;;;;;;;16.40;61.09;97088.22;10440464;28;20135;-52
2023/04/17 08:05:07;;;;;;;12.68;7.60;;;;;;;16.37;61.92;97084.84;10440199;28;20118;-52
2023/04/17 08:10:07;;;;;;;9.73;6.65;;;;;;;16.32;60.41;97089.41;10444369;28;20517;-52
2023/04/17 08:15:06;;;;;;;12.15;7.63;;;;;;;16.14;60.12;97083.91;10442949;28;20107;-52
2023/04/17 08:20:07;;;;;;;10.60;6.65;;;;;;;15.96;59.54;97077.50;10449470;28;20155;-52
2023/04/17 08:25:08;;;;;;;10.50;7.07;;;;;;;15.99;60.30;97089.63;10448793;28;20797;-52
2023/04/17 08:30:10;;;;;;;11.60;7.70;;;;;;;15.78;59.58;97038.84;10445631;28;20079;-53
2023/04/17 08:35:12;;;;;;;10.75;7.65;;;;;;;15.94;58.47;97083.72;10443618;28;20160;-53
2023/04/17 08:40:12;;;;;;;14.77;7.97;;;;;;;15.82;59.28;97083.19;10450313;28;20106;-52
2023/04/17 08:45:12;;;;;;;13.13;8.20;;;;;;;15.83;60.46;97047.41;10454971;28;20121;-53
2023/04/17 08:50:15;;;;;;;10.98;7.45;;;;;;;15.92;59.30;97088.13;10451776;28;20067;-52
2023/04/17 08:55:20;;;;;;;12.98;8.02;;;;;;;16.13;60.41;97083.94;10446465;28;20067;-52
2023/04/17 09:00:30;;;;;;;13.35;6.85;;;;;;;16.07;57.81;97087.63;10444650;28;20068;-52
2023/04/17 09:05:32;;;;;;;15.40;11.35;;;;;;;15.91;59.51;97079.44;10462081;28;20501;-52
2023/04/17 09:10:54;;;;;;;14.65;10.45;;;;;;;15.67;61.64;97094.16;10430129;28;20060;-52
2023/04/17 09:16:06;;;;;;;14.88;10.50;;;;;;;15.49;64.37;97090.34;10440396;28;20068;-52
2023/04/17 09:21:06;;;;;;;14.30;7.80;;;;;;;15.58;63.15;97099.66;10445709;28;20135;-51
2023/04/17 09:26:06;;;;;;;13.43;8.10;;;;;;;16.02;61.71;97087.78;10449664;28;20115;-52
2023/04/17 09:31:26;;;;;;;12.75;9.13;;;;;;;16.23;59.57;97082.72;10447809;28;20067;-53
2023/04/17 09:36:29;;;;;;;13.20;7.80;;;;;;;16.20;59.70;97088.06;10427518;28;20115;-52
2023/04/17 09:41:30;;;;;;;15.00;9.40;;;;;;;15.97;63.08;97092.28;10393864;28;20123;-52
2023/04/17 09:46:41;;;;;;;16.05;10.65;;;;;;;15.94;65.69;97097.63;10391548;28;20123;-51
2023/04/17 09:51:41;;;;;;;15.68;10.13;;;;;;;15.66;66.33;97076.72;10389441;28;20127;-52
2023/04/17 09:56:41;;;;;;;13.60;10.18;;;;;;;15.95;66.22;97083.66;10392532;28;20120;-52
2023/04/17 10:01:41;;;;;;;13.38;8.90;;;;;;;16.33;63.76;97084.13;10400743;28;20067;-52
2023/04/17 10:06:40;;;;;;;13.35;9.48;;;;;;;16.75;63.44;97086.13;10398253;28;20115;-52
2023/04/17 10:11:44;;;;;;;13.60;10.88;;;;;;;17.05;64.35;97076.31;10402589;28;20065;-52
2023/04/17 10:16:45;;;;;;;12.88;9.98;;;;;;;17.32;65.25;97071.75;10402757;28;20075;-52
2023/04/17 10:21:49;;;;;;;17.48;13.48;;;;;;;17.23;62.77;97069.47;10393160;28;20407;-52
2023/04/17 10:26:48;;;;;;;17.80;13.90;;;;;;;16.83;61.62;97068.38;10393904;28;20115;-52
2023/04/17 10:32:09;;;;;;;17.10;13.18;;;;;;;16.59;63.61;97069.25;10400606;28;20024;-52
2023/04/17 10:37:13;;;;;;;15.00;10.98;;;;;;;16.84;65.10;97062.22;10397020;28;20142;-53
2023/04/17 10:42:18;;;;;;;21.00;15.90;;;;;;;17.05;62.75;97059.69;10391613;28;20123;-53
2023/04/17 10:47:21;;;;;;;15.05;11.98;;;;;;;17.33;63.03;97065.59;10393415;28;20107;-54
2023/04/17 10:52:32;;;;;;;14.88;10.18;;;;;;;17.34;57.92;97075.16;10389002;28;20123;-54
2023/04/17 10:58:01;;;;;;;16.48;11.65;;;;;;;16.72;59.03;97067.88;10396644;28;20558;-53
2023/04/17 11:03:01;;;;;;;16.77;12.63;;;;;;;16.24;61.26;97074.81;10395835;28;20128;-52
2023/04/17 11:08:00;;;;;;;17.80;11.90;;;;;;;15.92;63.60;97073.28;10401390;28;20083;-52
2023/04/17 11:12:59;;;;;;;22.50;16.60;;;;;;;15.42;66.48;97047.00;10400785;28;20112;-51
2023/04/17 11:17:58;;;;;;;22.08;16.27;;;;;;;15.67;69.68;97078.44;10400820;28;20131;-52
2023/04/17 11:23:05;;;;;;;18.25;13.73;;;;;;;15.77;69.04;97073.78;10400619;28;20593;-53
2023/04/17 11:28:05;;;;;;;19.35;14.38;;;;;;;16.12;68.75;97053.44;10394636;28;20128;-53
2023/04/17 11:33:06;;;;;;;15.00;12.40;;;;;;;16.61;67.09;97062.19;10395705;28;20119;-53
2023/04/17 11:38:19;;;;;;;19.33;14.73;;;;;;;16.88;66.62;97034.97;10398610;28;20115;-52
2023/04/17 11:43:20;;;;;;;16.95;12.15;;;;;;;16.90;63.68;97053.28;10401166;28;20527;-52
2023/04/17 11:48:25;;;;;;;18.27;14.30;;;;;;;16.68;68.23;97050.56;10396585;28;20316;-53
2023/04/17 11:53:24;;;;;;;17.17;14.00;;;;;;;16.57;70.98;97047.50;10406937;28;20561;-54
2023/04/17 11:58:23;;;;;;;17.05;13.27;;;;;;;16.63;75.29;97047.25;10411896;28;20068;-53
2023/04/17 12:03:34;;;;;;;18.20;13.77;;;;;;;16.48;74.86;97046.91;10410397;28;20115;-53
2023/04/17 12:08:52;;;;;;;27.00;17.55;;;;;;;16.06;75.13;97033.56;10406186;28;20115;-53
2023/04/17 12:13:52;;;;;;;27.63;21.55;;;;;;;15.11;78.08;97042.72;10409814;28;20064;-52
2023/04/17 12:18:52;;;;;;;32.83;21.13;;;;;;;14.11;83.26;97044.66;10407244;28;20094;-52
2023/04/17 12:23:51;;;;;;;32.22;23.30;;;;;;;13.80;86.71;97047.19;10410146;28;20099;-51
2023/04/17 12:28:50;;;;;;;;;;;;;;;13.93;88.46;97041.63;10411689;28;20409;-50
2023/04/17 12:33:49;;;;;;;25.60;17.77;;;;;;;13.46;87.23;97048.84;10410521;28;19919;-51
2023/04/17 12:38:48;;;;;;;34.40;20.90;;;;;;;13.23;88.64;97046.78;10407340;28;20477;-49
2023/04/17 12:43:46;;;;;;;;;;;;;;;13.08;91.31;97047.97;10407732;28;20531;-52
2023/04/17 12:48:45;;;;;;;26.83;19.00;;;;;;;12.77;92.45;97054.75;10404162;28;20568;-51
2023/04/17 12:53:46;;;;;;;;;;;;;;;12.80;92.52;97052.94;10400795;28;20120;-52
2023/04/17 12:58:45;;;;;;;31.48;19.67;;;;;;;12.79;93.63;97051.25;10388611;28;19994;-52
2023/04/17 13:03:44;;;;;;;;;;;;;;;12.96;94.13;97056.06;10404345;28;20032;-53
2023/04/17 13:08:43;;;;;;;28.58;18.05;;;;;;;12.75;93.92;97051.34;10404927;28;20007;-52
2023/04/17 13:13:41;;;;;;;36.63;25.30;;;;;;;12.77;95.48;97062.56;10402334;28;20043;-52
2023/04/17 13:18:40;;;;;;;26.23;17.95;;;;;;;12.91;97.96;97050.13;10403372;28;20128;-51
2023/04/17 13:23:39;;;;;;;40.58;26.85;;;;;;;13.45;100.00;97052.34;10403540;28;20412;-51
2023/04/17 13:28:38;;;;;;;;;;;;;;;14.11;100.00;97045.50;10402366;28;20470;-51
2023/04/17 13:33:39;;;;;;;18.50;13.30;;;;;;;14.51;96.06;97035.75;10383502;28;19946;-50
2023/04/17 13:38:38;;;;;;;22.58;15.88;;;;;;;14.86;99.85;97039.13;10398792;28;20141;-49
2023/04/17 13:43:37;;;;;;;;;;;;;;;15.13;99.26;97034.81;10387852;28;20036;-51
2023/04/17 13:48:36;;;;;;;22.10;14.90;;;;;;;15.16;95.94;97027.75;10399855;28;20011;-50
2023/04/17 13:53:35;;;;;;;;;;;;;;;15.08;95.43;97021.88;10403865;28;20028;-49
2023/04/17 13:58:34;;;;;;;18.40;12.10;;;;;;;14.67;92.27;96999.59;10403383;28;20019;-51
2023/04/17 14:03:33;;;;;;;;;;;;;;;14.32;92.54;97017.97;10396088;28;20455;-50
2023/04/17 14:08:32;;;;;;;20.63;15.00;;;;;;;13.78;92.83;97015.94;10395812;28;20428;-51
2023/04/17 14:13:31;;;;;;;;;;;;;;;13.63;92.68;97011.13;10400282;28;20048;-49
2023/04/17 14:18:29;;;;;;;13.10;9.43;;;;;;;13.50;93.90;97011.41;10401123;28;20034;-49
2023/04/17 14:23:28;;;;;;;;;;;;;;;13.32;93.47;97012.69;10401087;28;20032;-51
2023/04/17 14:28:27;;;;;;;13.50;9.52;;;;;;;13.03;92.68;97020.34;10401273;28;19926;-49
2023/04/17 14:33:26;;;;;;;12.93;9.00;;;;;;;12.66;94.05;97011.56;10402220;28;20429;-49
2023/04/17 14:38:25;;;;;;;;;;;;;;;12.48;95.11;97010.19;10402896;28;20039;-50
2023/04/17 14:43:24;;;;;;;12.45;8.82;;;;;;;12.29;96.52;97009.72;10400912;28;19922;-51
2023/04/17 14:48:23;;;;;;;15.88;11.25;;;;;;;12.22;98.04;97013.28;10401660;28;20048;-50
2023/04/17 14:53:22;;;;;;;14.07;10.00;;;;;;;12.29;98.82;97019.28;10401345;28;20039;-50
2023/04/17 14:58:21;;;;;;;15.85;10.45;;;;;;;12.28;98.87;97013.22;10401637;28;20042;-51
2023/04/17 15:03:21;;;;;;;17.85;12.80;;;;;;;12.17;99.30;97012.53;10399823;28;20049;-52
2023/04/17 15:08:20;;;;;;;;;;;;;;;11.96;100.00;97018.16;10401836;28;20323;-49
2023/04/17 15:13:19;;;;;;;18.80;13.10;;;;;;;11.81;100.00;97022.75;10399467;28;19959;-49
2023/04/17 15:18:18;;;;;;;;;;;;;;;11.56;100.00;97021.44;10401271;28;20068;-47
2023/04/17 15:23:17;;;;;;;25.38;16.05;;;;;;;11.30;100.00;97019.28;10399096;28;19939;-47
2023/04/17 15:28:16;;;;;;;30.73;20.77;;;;;;;11.09;100.00;97015.25;10392632;28;20235;-48
2023/04/17 15:33:15;;;;;;;34.13;21.13;;;;;;;10.86;100.00;97008.63;10394761;28;20128;-50
2023/04/17 15:38:14;;;;;;;46.00;27.73;;;;;;;10.61;100.00;97013.28;10392736;28;20040;-50
2023/04/17 15:43:13;;;;;;;31.15;17.30;;;;;;;10.41;100.00;97010.94;10397499;28;20051;-50
2023/04/17 15:48:13;;;;;;;40.47;25.23;;;;;;;10.42;100.00;96973.75;10400095;28;20044;-50
2023/04/17 15:53:11;;;;;;;35.80;22.83;;;;;;;9.67;100.00;96840.75;10397793;28;20159;-47
2023/04/17 15:58:10;;;;;;;34.88;20.73;;;;;;;10.68;100.00;96999.34;10399500;28;20027;-47
2023/04/17 16:03:10;;;;;;;29.25;19.23;;;;;;;10.57;100.00;97004.69;10399342;28;20060;-47
2023/04/17 16:08:09;;;;;;;38.70;24.90;;;;;;;10.68;100.00;97006.28;10398287;28;20230;-49
2023/04/17 16:13:08;;;;;;;31.92;20.95;;;;;;;10.73;100.00;97000.16;10399250;28;20450;-48
2023/04/17 16:18:07;;;;;;;27.83;16.98;;;;;;;10.58;100.00;97011.59;10396553;28;20051;-48
2023/04/17 16:23:06;;;;;;;33.08;21.63;;;;;;;10.64;100.00;96986.47;10398598;28;20144;-49
2023/04/17 16:28:05;;;;;;;;;;;;;;;10.93;100.00;97010.28;10397842;28;20515;-48
2023/04/17 16:33:04;;;;;;;26.08;19.90;;;;;;;11.10;100.00;97015.22;10396618;28;20390;-49
2023/04/17 16:38:03;;;;;;;25.75;18.98;;;;;;;11.28;100.00;97016.69;10401354;28;20155;-48
2023/04/17 16:43:02;;;;;;;19.80;15.18;;;;;;;11.19;100.00;96990.84;10400710;28;20094;-49
2023/04/17 16:48:01;;;;;;;27.30;17.35;;;;;;;11.54;100.00;97023.22;10402194;28;20479;-48
2023/04/17 16:53:00;;;;;;;19.92;13.43;;;;;;;11.54;100.00;97028.41;10402833;28;20390;-48
2023/04/17 16:57:59;;;;;;;;;;;;;;;11.45;100.00;97030.28;10403072;28;20510;-49
2023/04/17 17:02:58;;;;;;;22.77;17.77;;;;;;;11.43;100.00;97036.34;10396769;28;20302;-49
2023/04/17 17:07:57;;;;;;;30.08;21.30;;;;;;;11.48;100.00;97042.38;10404124;28;20038;-47
2023/04/17 17:12:56;;;;;;;25.20;16.52;;;;;;;11.60;100.00;97046.50;10384621;28;20037;-48
2023/04/17 17:17:55;;;;;;;16.25;12.18;;;;;;;11.48;100.00;97026.78;10401816;28;20443;-48
2023/04/17 17:22:54;;;;;;;19.90;14.63;;;;;;;11.61;100.00;97053.41;10401861;28;20036;-48
2023/04/17 17:27:53;;;;;;;18.58;14.05;;;;;;;11.61;100.00;97064.66;10401909;28;20036;-49
2023/04/17 17:32:52;;;;;;;21.33;15.82;;;;;;;11.20;100.00;97026.34;10392810;28;20036;-48
2023/04/17 17:37:51;;;;;;;22.17;15.90;;;;;;;11.53;100.00;97063.06;10397116;28;20537;-50
2023/04/17 17:42:50;;;;;;;20.58;14.30;;;;;;;11.68;100.00;97073.22;10395102;28;20103;-49
2023/04/17 17:47:49;;;;;;;21.85;16.52;;;;;;;11.62;100.00;97078.53;10392620;28;20040;-48
2023/04/17 17:52:47;;;;;;;20.27;14.70;;;;;;;11.57;100.00;97085.50;10390508;28;20431;-49
2023/04/17 17:57:47;;;;;;;30.23;24.55;;;;;;;11.41;100.00;97064.97;10392458;28;20033;-49
2023/04/17 18:02:45;;;;;;;;;;;;;;;11.61;100.00;97092.38;10391484;28;20111;-48
2023/04/17 18:07:44;;;;;;;27.20;18.55;;;;;;;11.62;100.00;97100.16;10392191;28;20329;-49
2023/04/17 18:12:43;;;;;;;28.52;20.38;;;;;;;11.61;100.00;97103.63;10376012;28;20036;-50
2023/04/17 18:17:42;;;;;;;27.35;19.98;;;;;;;11.31;100.00;97055.59;10393204;28;20046;-50
2023/04/17 18:22:41;;;;;;;35.10;25.42;;;;;;;11.67;100.00;97119.13;10400703;28;20474;-49
2023/04/17 18:27:40;;;;;;;28.35;19.10;;;;;;;11.64;100.00;97127.00;10398752;28;20036;-50
2023/04/17 18:32:39;;;;;;;;;;;;;;;11.52;100.00;97128.91;10396172;28;20135;-48
2023/04/17 18:37:38;;;;;;;19.95;14.13;;;;;;;11.40;100.00;97140.34;10382501;28;19978;-50
2023/04/17 18:42:37;;;;;;;;;;;;;;;11.31;100.00;97133.50;10393398;28;20111;-48
2023/04/17 18:47:36;;;;;;;22.77;14.07;;;;;;;11.23;100.00;97133.63;10396396;28;19922;-48
2023/04/17 18:52:39;;;;;;;17.20;11.45;;;;;;;11.25;100.00;97131.03;10396657;28;20277;-48
2023/04/17 18:57:38;;;;;;;15.10;12.02;;;;;;;11.25;100.00;97125.81;10395928;28;20567;-48
2023/04/17 19:02:39;;;;;;;;;;;;;;;11.33;100.00;97136.94;10396589;28;20021;-49
2023/04/17 19:07:38;;;;;;;18.13;12.80;;;;;;;11.34;100.00;97130.00;10400295;28;20389;-51
2023/04/17 19:12:37;;;;;;;20.20;14.45;;;;;;;11.39;100.00;97130.84;10399425;28;20418;-48
2023/04/17 19:17:36;;;;;;;;;;;;;;;11.37;100.00;97141.22;10399420;28;20071;-48
2023/04/17 19:22:35;;;;;;;19.52;14.10;;;;;;;11.34;100.00;97141.28;10398497;28;20019;-48
2023/04/17 19:27:34;;;;;;;;;;;;;;;11.31;100.00;97130.06;10398109;28;20034;-48
2023/04/17 19:32:32;;;;;;;23.95;17.42;;;;;;;11.25;100.00;97128.44;10392199;28;19916;-50
2023/04/17 19:37:32;;;;;;;41.45;26.85;;;;;;;11.04;100.00;97086.28;10400976;28;20591;-49
2023/04/17 19:42:31;;;;;;;32.47;22.45;;;;;;;11.31;100.00;97137.84;10397963;28;20492;-50
2023/04/17 19:47:30;;;;;;;;;;;;;;;11.31;100.00;97141.31;10392548;28;20143;-48
2023/04/17 19:52:29;;;;;;;64.07;39.92;;;;;;;11.29;100.00;97132.72;10397198;28;20035;-49
2023/04/17 19:57:27;;;;;;;;;;;;;;;11.19;100.00;97138.88;10400376;28;20032;-50
2023/04/17 20:02:26;;;;;;;40.47;27.92;;;;;;;10.82;100.00;97074.41;10391444;28;20055;-49
2023/04/17 20:07:25;;;;;;;;;;;;;;;11.15;100.00;97140.69;10400310;28;20012;-49
2023/04/17 20:12:24;;;;;;;27.38;17.95;;;;;;;11.21;100.00;97144.91;10402883;28;19912;-50
2023/04/17 20:17:23;;;;;;;23.67;16.27;;;;;;;11.22;100.00;97151.81;10406336;28;20068;-48
2023/04/17 20:22:22;;;;;;;31.98;19.70;;;;;;;11.19;100.00;97146.69;10401148;28;20036;-48
2023/04/17 20:27:21;;;;;;;30.63;23.02;;;;;;;11.21;100.00;97150.13;10405414;28;20115;-49
2023/04/17 20:32:20;;;;;;;22.67;16.05;;;;;;;11.28;100.00;97150.91;10405218;28;20029;-48
2023/04/17 20:37:19;;;;;;;19.13;13.18;;;;;;;11.32;100.00;97158.63;10407153;28;20017;-48
2023/04/17 20:42:18;;;;;;;18.58;12.75;;;;;;;11.33;100.00;97155.13;10405323;28;20036;-49
2023/04/17 20:47:17;;;;;;;18.65;12.18;;;;;;;11.35;100.00;97158.56;10406007;28;20079;-48
2023/04/17 20:52:16;;;;;;;17.58;12.82;;;;;;;11.39;100.00;97149.88;10406115;28;20047;-48
2023/04/17 20:57:15;;;;;;;22.23;14.80;;;;;;;11.41;100.00;97147.25;10405811;28;20127;-49
2023/04/17 21:02:14;;;;;;;24.08;17.48;;;;;;;11.41;100.00;97149.84;10406381;28;20034;-51
2023/04/17 21:07:14;;;;;;;24.77;18.27;;;;;;;11.14;100.00;97094.81;10404454;28;20560;-48
2023/04/17 21:12:14;;;;;;;24.83;19.15;;;;;;;11.40;100.00;97151.56;10403461;28;20470;-49
2023/04/17 21:17:13;;;;;;;22.30;16.63;;;;;;;11.37;100.00;97153.38;10405106;28;20139;-49
2023/04/17 21:22:12;;;;;;;28.80;19.42;;;;;;;11.40;100.00;97151.56;10403243;28;20103;-48
2023/04/17 21:27:11;;;;;;;24.95;17.63;;;;;;;11.11;100.00;97122.56;10401260;28;20040;-48
2023/04/17 21:32:10;;;;;;;22.90;17.42;;;;;;;11.27;100.00;97157.84;10402398;28;20040;-48
2023/04/17 21:37:09;;;;;;;14.13;10.90;;;;;;;11.20;100.00;97143.22;10401821;28;20536;-49
2023/04/17 21:42:08;;;;;;;;;;;;;;;11.28;100.00;97154.34;10403080;28;20024;-48
2023/04/17 21:47:07;;;;;;;10.90;7.32;;;;;;;11.33;100.00;97157.72;10399828;28;20007;-50
2023/04/17 21:52:06;;;;;;;13.95;8.88;;;;;;;11.11;100.00;97128.59;10401642;28;20021;-48
2023/04/17 21:57:05;;;;;;;12.70;9.38;;;;;;;11.16;100.00;97154.50;10403022;28;20042;-50
2023/04/17 22:02:04;;;;;;;9.52;6.75;;;;;;;11.15;100.00;97151.06;10400593;28;20040;-50
2023/04/17 22:07:03;;;;;;;10.18;7.10;;;;;;;11.20;100.00;97151.00;10403187;28;20028;-49
2023/04/17 22:12:12;;;;;;;11.35;7.85;;;;;;;11.25;100.00;97152.66;10402490;28;20379;-49
2023/04/17 22:17:11;;;;;;;12.27;8.18;;;;;;;11.25;100.00;97154.41;10401183;28;20115;-48
2023/04/17 22:22:10;;;;;;;12.48;8.55;;;;;;;11.18;100.00;97138.03;10399199;28;20056;-48
2023/04/17 22:27:09;;;;;;;;;;;;;;;11.26;100.00;97158.69;10399716;28;20335;-48
2023/04/17 22:32:07;;;;;;;15.48;10.60;;;;;;;11.23;100.00;97158.75;10399515;28;19912;-49
2023/04/17 22:37:06;;;;;;;;;;;;;;;11.27;100.00;97163.03;10401983;28;20024;-48
2023/04/17 22:42:06;;;;;;;12.63;8.98;;;;;;;10.55;100.00;97049.69;10402485;28;19916;-49
2023/04/17 22:47:05;;;;;;;13.07;10.68;;;;;;;10.97;100.00;97154.75;10401123;28;20156;-50
2023/04/17 22:52:04;;;;;;;;;;;;;;;10.65;100.00;97162.00;10401933;28;20024;-49
2023/04/17 22:57:03;;;;;;;15.25;9.05;;;;;;;10.36;100.00;97165.78;10402211;28;19970;-48
2023/04/17 23:02:03;;;;;;;14.52;9.00;;;;;;;10.15;100.00;97159.03;10401340;28;20043;-49